Overview Statistics Trail Chart Weather Telemetry Raw packets
 

This is the latest recevied weather packets stored in our database for station/object W0AKY-13. If no packets are shown the sender has not sent any weather packets the latest 10 day(s).

<< 22 23 24 25 26 27 28 >>
Time Temp. Humidity Pressure Rain* Wind** Luminosity Snow
1788463493 35.56° C 50% 1011.2 hPa 0 mm - 524 W/m² -
1788463193 35° C 53% 1011.5 hPa 0 mm - 518 W/m² -
1788462889 35° C 51% 1011.6 hPa 0 mm - 208 W/m² -
1788462588 35.56° C 49% 1011.8 hPa 0 mm - 275 W/m² -
1788462283 35.56° C 54% 1011.5 hPa 0 mm - 560 W/m² -
1788461983 35.56° C 51% 1011.8 hPa 0 mm - 556 W/m² -
1788461679 35.56° C 52% 1011.9 hPa 0 mm - 561 W/m² -
1788461379 35° C 53% 1011.7 hPa 0 mm - 557 W/m² -
1788461076 35° C 53% 1011.9 hPa 0 mm - 558 W/m² -
1788460776 35° C 53% 1011.8 hPa 0 mm - 562 W/m² -
1788460470 35° C 55% 1012 hPa 0 mm - 562 W/m² -
1788460170 35° C 55% 1011.9 hPa 0 mm - 554 W/m² -
1788459868 34.44° C 58% 1012.2 hPa 0 mm - 570 W/m² -
1788453795 31.67° C 66% 1012.4 hPa 0 mm - 279 W/m² -
1788453494 31.67° C 66% 1012.4 hPa 0 mm - 279 W/m² -
1788453192 31.11° C 65% 1012.6 hPa 0 mm - 406 W/m² -
1788452887 30.56° C 66% 1012.4 hPa 0 mm - 169 W/m² -
1788452583 30.56° C 66% 1012.8 hPa 0 mm - 126 W/m² -
1788452279 30.56° C 66% 1012.6 hPa 0 mm - 127 W/m² -
1788451974 30.56° C 66% 1012.6 hPa 0 mm - 92 W/m² -
1788451669 30.56° C 65% 1012.7 hPa 0 mm - 98 W/m² -
1788451368 30.56° C 65% 1012.7 hPa 0 mm - 145 W/m² -
1788451067 30.56° C 63% 1012.7 hPa 0 mm - 150 W/m² -
1788450762 31.11° C 65% 1012.6 hPa 0 mm - 129 W/m² -
1788450458 31.11° C 64% 1012.6 hPa 0 mm - 133 W/m² -

* Rain latest hour (hover to see other rain measurements)
** Current wind speed in m/s (hover to see current wind gust speed)